首页
METAR-TAF:

METAR-TAF

机场 :

萨格勒布机场

萨格勒布, 克罗地亚

纬度: 45-44N, 经度: 016-04E, 海拔: 106米

当前天气观测

该预报发布于23分钟前的16:00 UTC
风速6节,风向东北
温度 2°C
湿度 93%
气压 988 hPa
能見度: 7000

METAR: LDZA 131600Z 05006KT 7000 NSC 02/01 Q0988 NOSIG

时间: 17:23 (16:23 UTC)

预报

该预报发布于4小时和56分钟前的11:27 UTC
预报有效从13日的 12点(UTC)到 14日的 12点(UTC)
风速5节,风向
能見度: 5000
多云层高于1500英尺
阴天层高于3000英尺
轻雾
几率 30% :
短暂存在
从 13日的 12点(UTC)到 13日的 14点(UTC)
能見度: 3000
多云层高于400英尺
阴天层高于1200英尺
成为
从 13日的 17点(UTC)到 13日的 19点(UTC)
风速12节,风向东北
短暂存在
从 13日的 17点(UTC)到 14日的 04点(UTC)
能見度: 1500
多云层高于1000英尺
雨, 轻雾
几率 30%
从 14日的 04点(UTC)到 14日的 11点(UTC)
能見度: 1000
浅雾, 轻雾
成为
从 14日的 10点(UTC)到 14日的 12点(UTC)
风速7节,风向西南

TAF: LDZA 131127Z 1312/1412 08005KT 5000 BR BKN015 OVC030 TX04/1411Z TN01/1312Z PROB30 TEMPO 1312/1314 3000 BKN004 OVC012 BECMG 1317/1319 05012KT TEMPO 1317/1404 1500 RA BR BKN010 PROB30 1404/1411 1000 MIFG BR BECMG 1410/1412 23007KT

超过4000个机场的气象观测和天气预报(METAR&TAF报告)。

可查询的气象台以黄色和红色小点在地图上表示。

将鼠标移到小点上方,可查看气象台名称。

然后点击查看天气观测和预报。

如需切换地图:点击带黑十字的绿色按钮放大地图;点击带横线的绿色按钮缩小地图;或者点击绿色箭头查看邻近地区的地图。


METAR-TAF: